createdAt,value
2023-02-25T00:01:08.429Z,100138.97
2023-02-25T00:03:37.891Z,100131.91
2023-02-25T00:06:06.488Z,100130.25
2023-02-25T00:08:34.829Z,100132.75
2023-02-25T00:11:04.025Z,100132.16
2023-02-25T00:13:32.014Z,100130.47
2023-02-25T00:16:00.007Z,100136.75
2023-02-25T00:18:28.509Z,100137.56
2023-02-25T00:20:57.812Z,100134.84
2023-02-25T00:23:25.841Z,100137.56
2023-02-25T00:25:59.536Z,100139.69
2023-02-25T00:28:27.641Z,100135.06
2023-02-25T00:30:55.716Z,100137.78
2023-02-25T00:33:24.698Z,100133.19
2023-02-25T00:35:52.635Z,100132.38
2023-02-25T00:38:22.700Z,100133.41
2023-02-25T00:40:50.632Z,100132.38
2023-02-25T00:43:18.646Z,100133.81
2023-02-25T00:45:46.543Z,100132.56
2023-02-25T00:48:14.456Z,100133.41
2023-02-25T00:50:42.397Z,100129.84
2023-02-25T00:53:10.254Z,100129.84
2023-02-25T00:55:39.907Z,100125.28
2023-02-25T00:58:07.833Z,100118.19
2023-02-25T01:00:46.459Z,100121.69
2023-02-25T01:03:18.143Z,100129.03
2023-02-25T01:05:49.384Z,100135.28
2023-02-25T01:08:18.197Z,100127.38
2023-02-25T01:10:47.814Z,100129.25
2023-02-25T01:13:15.862Z,100128.22
2023-02-25T01:15:44.750Z,100123.22
2023-02-25T01:18:12.744Z,100131.16
2023-02-25T01:20:41.010Z,100137.41
2023-02-25T01:23:08.958Z,100138.69
2023-02-25T01:25:40.099Z,100138.47
2023-02-25T01:28:09.674Z,100135.75
2023-02-25T01:30:38.384Z,100136.78
2023-02-25T01:33:06.305Z,100138.47
2023-02-25T01:35:34.253Z,100132.19
2023-02-25T01:38:02.134Z,100134.91
2023-02-25T01:40:31.020Z,100134.91
2023-02-25T01:42:59.092Z,100144.94
2023-02-25T01:45:37.399Z,100131.47
2023-02-25T01:48:09.088Z,100144.94
2023-02-25T01:50:43.936Z,100146.81
2023-02-25T01:53:11.916Z,100153.91
2023-02-25T01:55:40.327Z,100145.78
2023-02-25T01:58:09.355Z,100153.91
2023-02-25T02:00:39.009Z,100140.56
2023-02-25T02:03:10.246Z,100150.63
2023-02-25T02:05:42.261Z,100140.91
2023-02-25T02:08:10.498Z,100140.56
2023-02-25T02:10:38.678Z,100147.91
2023-02-25T02:13:06.628Z,100150.63
2023-02-25T02:15:35.009Z,100145.19
2023-02-25T02:18:04.309Z,100147.91
2023-02-25T02:20:34.863Z,100158.97
2023-02-25T02:23:22.036Z,100137.84
2023-02-25T02:26:23.628Z,100129.34
2023-02-25T02:29:24.848Z,100137.28
2023-02-25T02:31:57.586Z,100144.56
2023-02-25T02:34:31.839Z,100000.47
2023-02-25T02:37:06.164Z,100136.53
2023-02-25T02:39:38.611Z,100132.41
2023-02-25T02:42:08.845Z,100139.97
2023-02-25T02:44:39.250Z,100138.09
2023-02-25T02:47:10.704Z,100129.34
2023-02-25T02:49:41.112Z,100144.34
2023-02-25T02:52:15.025Z,100134.34
2023-02-25T02:54:43.392Z,100139.97
2023-02-25T02:57:12.017Z,100134.78
2023-02-25T02:59:43.035Z,100150.00
2023-02-25T03:02:14.375Z,100142.69
2023-02-25T03:04:43.179Z,100143.75
2023-02-25T03:07:12.027Z,100147.28
2023-02-25T03:09:42.153Z,100140.81
2023-02-25T03:12:10.106Z,100150.00
2023-02-25T03:14:38.064Z,100150.84
2023-02-25T03:17:07.545Z,100146.47
2023-02-25T03:19:38.822Z,100151.06
2023-02-25T03:22:08.603Z,100151.88
2023-02-25T03:24:39.116Z,100146.47
2023-02-25T03:27:26.319Z,100155.66
2023-02-25T03:29:54.357Z,100159.19
2023-02-25T03:32:22.368Z,100146.69
2023-02-25T03:34:51.655Z,100159.19
2023-02-25T03:37:21.853Z,100152.94
2023-02-25T03:39:52.261Z,100157.31
2023-02-25T03:42:21.524Z,100169.00
2023-02-25T03:44:50.853Z,100169.22
2023-02-25T03:47:18.887Z,100159.19
2023-02-25T03:49:48.716Z,100164.63
2023-02-25T03:52:19.360Z,100156.50
2023-02-25T03:54:51.409Z,100159.19
2023-02-25T03:57:19.483Z,100162.75
2023-02-25T03:59:47.675Z,100162.97
2023-02-25T04:02:15.567Z,100167.34
2023-02-25T04:04:43.977Z,100163.81
2023-02-25T04:07:11.906Z,100165.69
2023-02-25T04:09:41.443Z,100170.06
2023-02-25T04:12:09.710Z,100177.38
2023-02-25T04:14:37.578Z,100178.41
2023-02-25T04:17:06.240Z,100177.16
2023-02-25T04:19:34.466Z,100183.63
2023-02-25T04:22:02.365Z,100179.03
2023-02-25T04:24:30.250Z,100183.41
2023-02-25T04:27:01.664Z,100196.75
2023-02-25T04:29:29.579Z,100202.41
2023-02-25T04:31:57.664Z,100195.94
2023-02-25T04:34:25.652Z,100196.75
2023-02-25T04:36:53.593Z,100194.84
2023-02-25T04:39:21.766Z,100196.50
2023-02-25T04:41:49.800Z,100201.09
2023-02-25T04:44:19.070Z,100193.78
2023-02-25T04:46:51.694Z,100191.09
2023-02-25T04:49:20.154Z,100195.69
2023-02-25T04:51:49.395Z,100194.63
2023-02-25T04:54:18.458Z,100190.25
2023-02-25T04:56:46.373Z,100190.88
2023-02-25T04:59:14.589Z,100187.31
2023-02-25T05:01:44.138Z,100185.44
2023-02-25T05:04:12.015Z,100183.56
2023-02-25T05:06:40.286Z,100188.97
2023-02-25T05:09:10.288Z,100181.66
2023-02-25T05:11:38.368Z,100190.88
2023-02-25T05:14:06.332Z,100187.09
2023-02-25T05:16:34.325Z,100196.06
2023-02-25T05:19:03.943Z,100187.94
2023-02-25T05:21:31.914Z,100190.66
2023-02-25T05:23:59.813Z,100195.00
2023-02-25T05:26:27.740Z,100181.41
2023-02-25T05:28:56.492Z,100185.22
2023-02-25T05:31:25.043Z,100176.00
2023-02-25T05:33:53.156Z,100189.56
2023-02-25T05:36:24.121Z,100187.94
2023-02-25T05:38:54.484Z,100183.34
2023-02-25T05:41:22.362Z,100188.75
2023-02-25T05:43:50.232Z,100190.41
2023-02-25T05:46:18.630Z,100193.34
2023-02-25T05:48:47.121Z,100196.06
2023-02-25T05:51:17.190Z,100195.84
2023-02-25T05:53:48.057Z,100189.38
2023-02-25T05:56:17.291Z,100191.25
2023-02-25T05:58:46.727Z,100181.22
2023-02-25T06:01:15.785Z,100188.53
2023-02-25T06:03:43.989Z,100192.91
2023-02-25T06:06:12.913Z,100197.53
2023-02-25T06:08:41.888Z,100204.81
2023-02-25T06:11:11.279Z,100209.22
2023-02-25T06:13:39.193Z,100203.78
2023-02-25T06:16:07.886Z,100208.38
2023-02-25T06:18:37.599Z,100216.53
2023-02-25T06:21:06.958Z,100204.81
2023-02-25T06:23:34.929Z,100204.81
2023-02-25T06:26:03.152Z,100212.13
2023-02-25T06:28:33.156Z,100207.53
2023-02-25T06:31:01.150Z,100209.22
2023-02-25T06:33:30.775Z,100213.81
2023-02-25T06:35:58.857Z,100216.53
2023-02-25T06:38:27.057Z,100230.91
2023-02-25T06:40:55.011Z,100234.47
2023-02-25T06:43:22.891Z,100235.31
2023-02-25T06:45:52.316Z,100226.31
2023-02-25T06:48:20.235Z,100239.06
2023-02-25T06:50:48.100Z,100242.63
2023-02-25T06:53:15.996Z,100236.34
2023-02-25T06:55:43.830Z,100247.22
2023-02-25T06:58:12.021Z,100246.38
2023-02-25T07:00:43.131Z,100262.44
2023-02-25T07:03:12.880Z,100256.19
2023-02-25T07:05:40.816Z,100251.59
2023-02-25T07:08:08.979Z,100259.72
2023-02-25T07:10:37.289Z,100254.31
2023-02-25T07:13:05.275Z,100255.56
2023-02-25T07:15:33.354Z,100260.13
2023-02-25T07:18:01.392Z,100263.28
2023-02-25T07:20:31.092Z,100277.69
2023-02-25T07:22:59.807Z,100273.09
2023-02-25T07:25:27.882Z,100271.88
2023-02-25T07:27:56.120Z,100277.69
2023-02-25T07:30:24.161Z,100273.53
2023-02-25T07:32:52.215Z,100276.63
2023-02-25T07:35:20.286Z,100273.94
2023-02-25T07:37:49.737Z,100266.22
2023-02-25T07:40:18.380Z,100261.16
2023-02-25T07:42:46.276Z,100271.22
2023-02-25T07:45:14.221Z,100267.66
2023-02-25T07:47:42.133Z,100265.78
2023-02-25T07:50:12.903Z,100271.44
2023-02-25T07:52:41.041Z,100283.94
2023-02-25T07:55:11.624Z,100283.94
2023-02-25T07:57:39.513Z,100285.84
2023-02-25T08:00:10.822Z,100285.84
2023-02-25T08:02:38.857Z,100294.81
2023-02-25T08:05:07.670Z,100290.22
2023-02-25T08:07:35.610Z,100292.09
2023-02-25T08:10:03.806Z,100292.94
2023-02-25T08:12:33.476Z,100292.94
2023-02-25T08:15:02.129Z,100293.97
2023-02-25T08:17:32.514Z,100292.09
2023-02-25T08:20:00.700Z,100284.78
2023-02-25T08:22:28.647Z,100288.28
2023-02-25T08:24:56.863Z,100284.78
2023-02-25T08:27:24.818Z,100297.53
2023-02-25T08:29:54.477Z,100295.66
2023-02-25T08:32:23.079Z,100298.09
2023-02-25T08:34:51.949Z,100302.72
2023-02-25T08:37:21.570Z,100311.94
2023-02-25T08:39:49.930Z,100307.31
2023-02-25T08:42:19.009Z,100305.41
2023-02-25T08:44:46.949Z,100301.88
2023-02-25T08:47:16.356Z,100309.22
2023-02-25T08:49:44.540Z,100306.50
2023-02-25T08:52:13.960Z,100318.16
2023-02-25T08:54:42.385Z,100315.44
2023-02-25T08:57:10.260Z,100316.53
2023-02-25T08:59:39.244Z,100317.13
2023-02-25T09:02:07.499Z,100328.81
2023-02-25T09:04:37.844Z,100320.06
2023-02-25T09:07:06.005Z,100319.00
2023-02-25T09:09:34.296Z,100322.53
2023-02-25T09:12:05.171Z,100319.00
2023-02-25T09:14:33.598Z,100313.56
2023-02-25T09:17:01.787Z,100314.41
2023-02-25T09:19:30.077Z,100322.53
2023-02-25T09:21:59.517Z,100321.34
2023-02-25T09:24:29.932Z,100330.69
2023-02-25T09:26:57.821Z,100332.34
2023-02-25T09:29:25.739Z,100342.38
2023-02-25T09:31:54.571Z,100335.06
2023-02-25T09:34:22.527Z,100332.34
2023-02-25T09:36:50.430Z,100336.94
2023-02-25T09:39:19.950Z,100344.06
2023-02-25T09:41:51.370Z,100330.97
2023-02-25T09:44:21.770Z,100341.34
2023-02-25T09:46:52.003Z,100341.34
2023-02-25T09:49:23.052Z,100349.47
2023-02-25T09:51:54.906Z,100344.88
2023-02-25T09:54:27.014Z,100352.19
2023-02-25T09:56:55.154Z,100352.41
2023-02-25T09:59:24.595Z,100359.50
2023-02-25T10:01:54.208Z,100370.16
2023-02-25T10:04:26.084Z,100375.56
2023-02-25T10:06:56.073Z,100384.56
2023-02-25T10:09:29.945Z,100379.34
2023-02-25T10:12:01.958Z,100305.38
2023-02-25T10:14:41.078Z,100375.56
2023-02-25T10:17:12.188Z,100373.69
2023-02-25T10:19:52.095Z,100367.44
2023-02-25T10:22:30.782Z,100376.84
2023-02-25T10:25:02.250Z,100393.53
2023-02-25T10:27:33.188Z,100398.97
2023-02-25T10:30:02.844Z,100398.97
2023-02-25T10:32:33.197Z,100407.13
2023-02-25T10:35:01.850Z,100409.84
2023-02-25T10:37:32.076Z,100414.19
2023-02-25T10:40:04.426Z,100421.50
2023-02-25T10:42:32.815Z,100446.75
2023-02-25T10:45:02.841Z,100445.72
2023-02-25T10:47:34.632Z,100453.13
2023-02-25T10:50:14.854Z,100469.94
2023-02-25T10:52:57.060Z,100471.81
2023-02-25T10:55:55.364Z,100465.56
2023-02-25T10:58:29.413Z,100469.09
2023-02-25T11:01:00.006Z,100473.69
2023-02-25T11:03:27.960Z,100437.94
2023-02-25T11:06:12.754Z,100470.16
2023-02-25T11:08:40.923Z,100465.56
2023-02-25T11:11:16.076Z,100481.84
2023-02-25T11:13:43.995Z,100465.56
2023-02-25T11:16:13.302Z,100468.28
2023-02-25T11:18:41.598Z,100452.03
2023-02-25T11:21:10.384Z,100467.44
2023-02-25T11:23:40.415Z,100459.28
2023-02-25T11:26:08.380Z,100461.16
2023-02-25T11:28:40.323Z,100459.28
2023-02-25T11:31:11.996Z,100437.69
2023-02-25T11:33:41.410Z,100448.44
2023-02-25T11:36:09.861Z,100447.59
2023-02-25T11:38:38.758Z,100453.88
2023-02-25T11:41:16.554Z,100451.97
2023-02-25T11:43:45.849Z,100451.97
2023-02-25T11:46:15.120Z,100450.09
2023-02-25T11:48:49.668Z,100449.25
2023-02-25T11:51:27.767Z,100429.31
2023-02-25T11:54:10.172Z,100451.97
2023-02-25T11:56:38.635Z,100451.97
2023-02-25T11:59:14.878Z,100446.53
2023-02-25T12:01:53.236Z,100443.84
2023-02-25T12:04:40.998Z,100439.44
2023-02-25T12:07:26.859Z,100429.03
2023-02-25T12:10:30.542Z,100443.84
2023-02-25T12:13:33.980Z,100432.13
2023-02-25T12:16:30.763Z,100443.84
2023-02-25T12:19:22.776Z,100419.69
2023-02-25T12:22:14.697Z,100417.41
2023-02-25T12:24:59.452Z,100438.41
2023-02-25T12:27:47.791Z,100431.09
2023-02-25T12:30:49.841Z,100424.59
2023-02-25T12:33:40.472Z,100431.91
2023-02-25T12:36:18.196Z,100426.50
2023-02-25T12:39:17.360Z,100433.81
2023-02-25T12:41:48.018Z,100429.22
2023-02-25T12:44:47.632Z,100438.41
2023-02-25T12:47:26.617Z,100462.84
2023-02-25T12:50:17.749Z,100475.59
2023-02-25T12:52:55.417Z,100469.94
2023-02-25T12:55:42.024Z,100466.59
2023-02-25T12:58:21.081Z,100466.38
2023-02-25T13:01:34.374Z,100465.56
2023-02-25T13:04:24.533Z,100462.00
2023-02-25T13:07:02.032Z,100463.69
2023-02-25T13:09:48.023Z,100472.88
2023-02-25T13:12:24.291Z,100464.72
2023-02-25T13:14:58.581Z,100474.75
2023-02-25T13:17:35.452Z,100462.84
2023-02-25T13:20:34.358Z,100465.56
2023-02-25T13:23:33.564Z,100466.38
2023-02-25T13:26:10.744Z,100471.81
2023-02-25T13:28:57.669Z,100471.00
2023-02-25T13:31:27.747Z,100457.41
2023-02-25T13:34:01.268Z,100404.88
2023-02-25T13:36:40.351Z,100467.44
2023-02-25T13:39:19.639Z,100462.84
2023-02-25T13:41:54.577Z,100482.69
2023-02-25T13:44:33.636Z,100468.09
2023-02-25T13:47:38.206Z,100469.31
2023-02-25T13:50:34.448Z,100488.13
2023-02-25T13:53:17.836Z,100489.16
2023-02-25T13:56:04.639Z,100487.28
2023-02-25T13:58:47.404Z,100490.81
2023-02-25T14:01:32.089Z,100475.38
2023-02-25T14:04:20.729Z,100491.66
2023-02-25T14:07:28.750Z,100430.19
2023-02-25T14:10:01.584Z,100509.00
2023-02-25T14:12:43.899Z,100503.78
2023-02-25T14:15:25.760Z,100488.09
2023-02-25T14:18:18.896Z,100513.59
2023-02-25T14:20:51.172Z,100516.53
2023-02-25T14:23:25.316Z,100523.63
2023-02-25T14:26:05.058Z,100523.63
2023-02-25T14:28:44.144Z,100529.06
2023-02-25T14:31:15.865Z,100521.16
2023-02-25T14:34:02.458Z,100527.38
2023-02-25T14:36:38.980Z,100527.16
2023-02-25T14:39:23.774Z,100527.16
2023-02-25T14:41:58.885Z,100520.16
2023-02-25T14:44:31.664Z,100545.13
2023-02-25T14:47:00.924Z,100511.03
2023-02-25T14:49:31.260Z,100546.19
2023-02-25T14:52:17.557Z,100549.72
2023-02-25T14:55:30.827Z,100555.38
2023-02-25T14:58:22.741Z,100471.00
2023-02-25T15:01:15.520Z,100559.16
2023-02-25T15:04:19.603Z,100554.78
2023-02-25T15:06:55.438Z,100559.38
2023-02-25T15:09:54.024Z,100552.13
2023-02-25T15:12:28.361Z,100560.22
2023-02-25T15:15:23.245Z,100577.75
2023-02-25T15:18:20.960Z,100569.63
2023-02-25T15:20:49.094Z,100587.78
2023-02-25T15:23:17.962Z,100571.75
2023-02-25T15:25:48.301Z,100576.09
2023-02-25T15:28:39.581Z,100574.66
2023-02-25T15:31:28.518Z,100569.84
2023-02-25T15:34:31.420Z,100582.34
2023-02-25T15:37:35.703Z,100590.50
2023-02-25T15:40:38.077Z,100597.81
2023-02-25T15:43:39.182Z,100609.75
2023-02-25T15:46:41.639Z,100612.47
2023-02-25T15:49:20.030Z,100607.25
2023-02-25T15:51:49.208Z,100618.09
2023-02-25T15:54:47.780Z,100619.78
2023-02-25T15:57:37.027Z,100618.09
2023-02-25T16:00:28.918Z,100623.31
2023-02-25T16:03:01.668Z,100626.03
2023-02-25T16:05:34.026Z,100638.78
2023-02-25T16:08:08.369Z,100644.22
2023-02-25T16:10:37.132Z,100648.59
2023-02-25T16:13:05.099Z,100645.88
2023-02-25T16:15:34.783Z,100652.94
2023-02-25T16:18:07.791Z,100655.06
2023-02-25T16:20:46.368Z,100577.66
2023-02-25T16:23:14.331Z,100668.19
2023-02-25T16:25:43.631Z,100670.91
2023-02-25T16:28:15.486Z,100669.03
2023-02-25T16:30:47.551Z,100679.06
2023-02-25T16:33:20.524Z,100680.09
2023-02-25T16:35:57.571Z,100685.53
2023-02-25T16:38:35.250Z,100701.44
2023-02-25T16:41:04.139Z,100690.13
2023-02-25T16:43:34.265Z,100690.78
2023-02-25T16:46:03.142Z,100701.00
2023-02-25T16:48:33.951Z,100703.72
2023-02-25T16:51:09.585Z,100705.63
2023-02-25T16:53:37.470Z,100714.81
2023-02-25T16:56:05.813Z,100721.06
2023-02-25T16:58:34.031Z,100725.66
2023-02-25T17:01:03.865Z,100733.81
2023-02-25T17:03:41.005Z,100735.69
2023-02-25T17:06:18.158Z,100739.25
2023-02-25T17:08:46.369Z,100738.41
2023-02-25T17:11:16.437Z,100741.97
2023-02-25T17:13:44.346Z,100744.66
2023-02-25T17:16:21.003Z,100747.38
2023-02-25T17:18:50.507Z,100751.97
2023-02-25T17:21:23.045Z,100754.69
2023-02-25T17:23:51.333Z,100762.84
2023-02-25T17:26:19.618Z,100760.53
2023-02-25T17:28:48.381Z,100763.88
2023-02-25T17:31:18.144Z,100766.41
2023-02-25T17:33:51.192Z,100768.47
2023-02-25T17:36:22.952Z,100774.75
2023-02-25T17:38:53.012Z,100775.59
2023-02-25T17:41:21.007Z,100745.53
2023-02-25T17:43:48.913Z,100779.34
2023-02-25T17:46:22.583Z,100783.09
2023-02-25T17:48:52.343Z,100785.59
2023-02-25T17:51:28.168Z,100794.78
2023-02-25T17:53:56.851Z,100790.41
2023-02-25T17:56:26.420Z,100792.25
2023-02-25T17:58:56.959Z,100798.56
2023-02-25T18:01:27.070Z,100798.34
2023-02-25T18:03:55.100Z,100803.97
2023-02-25T18:06:32.700Z,100811.25
2023-02-25T18:09:02.867Z,100813.16
2023-02-25T18:11:32.497Z,100784.63
2023-02-25T18:14:01.669Z,100817.56
2023-02-25T18:16:40.194Z,100824.03
2023-02-25T18:19:26.966Z,100828.63
2023-02-25T18:21:56.279Z,100829.47
2023-02-25T18:24:25.712Z,100831.13
2023-02-25T18:27:24.703Z,100843.03
2023-02-25T18:29:52.693Z,100844.91
2023-02-25T18:32:20.731Z,100854.94
2023-02-25T18:34:48.644Z,100855.78
2023-02-25T18:37:18.491Z,100866.44
2023-02-25T18:39:47.695Z,100865.56
2023-02-25T18:42:17.002Z,100863.72
2023-02-25T18:44:45.228Z,100873.53
2023-02-25T18:47:13.124Z,100875.41
2023-02-25T18:49:41.411Z,100869.16
2023-02-25T18:52:14.904Z,100875.41
2023-02-25T18:54:44.239Z,100886.28
2023-02-25T18:57:24.441Z,100885.44
2023-02-25T18:59:52.543Z,100876.41
2023-02-25T19:02:30.673Z,100884.56
2023-02-25T19:04:58.654Z,100890.22
2023-02-25T19:07:28.090Z,100898.81
2023-02-25T19:09:57.755Z,100906.94
2023-02-25T19:12:25.984Z,100905.28
2023-02-25T19:14:56.377Z,100884.16
2023-02-25T19:17:24.296Z,100904.25
2023-02-25T19:19:52.573Z,100901.31
2023-02-25T19:22:20.447Z,100913.22
2023-02-25T19:24:48.993Z,100913.22
2023-02-25T19:27:20.382Z,100918.66
2023-02-25T19:29:49.137Z,100919.69
2023-02-25T19:32:17.851Z,100921.38
2023-02-25T19:34:45.921Z,100927.84
2023-02-25T19:37:13.892Z,100927.00
2023-02-25T19:39:42.425Z,100928.69
2023-02-25T19:42:10.598Z,100915.50
2023-02-25T19:44:39.879Z,100934.94
2023-02-25T19:47:07.966Z,100934.94
2023-02-25T19:49:36.193Z,100934.94
2023-02-25T19:52:04.175Z,100936.81
2023-02-25T19:54:32.109Z,100941.41
2023-02-25T19:57:00.027Z,100953.94
2023-02-25T19:59:30.364Z,100954.16
2023-02-25T20:01:59.691Z,100954.16
2023-02-25T20:04:27.620Z,100952.28
2023-02-25T20:06:55.576Z,100952.28
2023-02-25T20:09:23.767Z,100964.81
2023-02-25T20:11:52.895Z,100963.97
2023-02-25T20:14:22.992Z,100965.84
2023-02-25T20:16:51.026Z,100961.47
2023-02-25T20:19:20.724Z,100968.56
2023-02-25T20:21:48.610Z,100969.59
2023-02-25T20:24:16.577Z,100975.88
2023-02-25T20:26:44.771Z,100971.44
2023-02-25T20:29:12.771Z,100976.06
2023-02-25T20:31:40.967Z,100987.75
2023-02-25T20:34:12.024Z,100984.84
2023-02-25T20:36:43.100Z,100984.03
2023-02-25T20:39:23.438Z,100985.03
2023-02-25T20:41:51.478Z,100986.72
2023-02-25T20:44:19.571Z,100990.47
2023-02-25T20:46:47.664Z,100995.72
2023-02-25T20:49:17.039Z,100997.59
2023-02-25T20:51:47.487Z,101003.03
2023-02-25T20:54:16.969Z,101005.94
2023-02-25T20:56:44.885Z,101012.00
2023-02-25T20:59:13.392Z,101017.25
2023-02-25T21:01:41.423Z,101017.44
2023-02-25T21:04:09.460Z,101013.88
2023-02-25T21:06:38.181Z,101019.53
2023-02-25T21:09:07.841Z,101012.19
2023-02-25T21:11:35.792Z,101022.03
2023-02-25T21:14:03.785Z,101023.03
2023-02-25T21:16:32.987Z,101018.47
2023-02-25T21:19:01.198Z,101027.47
2023-02-25T21:21:31.525Z,101031.03
2023-02-25T21:23:59.466Z,101031.03
2023-02-25T21:26:28.745Z,101031.19
2023-02-25T21:28:56.640Z,101027.66
2023-02-25T21:31:24.748Z,101039.16
2023-02-25T21:33:52.749Z,101029.34
2023-02-25T21:36:20.649Z,101029.34
2023-02-25T21:38:48.874Z,101038.31
2023-02-25T21:41:16.985Z,101032.06
2023-02-25T21:43:46.283Z,101034.78
2023-02-25T21:46:16.233Z,101033.91
2023-02-25T21:48:46.652Z,101040.19
2023-02-25T21:51:15.786Z,101043.75
2023-02-25T21:53:43.711Z,101042.91
2023-02-25T21:56:12.559Z,101043.97
2023-02-25T21:58:41.115Z,101032.06
2023-02-25T22:01:14.925Z,101023.69
2023-02-25T22:03:42.992Z,101043.97
2023-02-25T22:06:11.049Z,101038.91
2023-02-25T22:08:40.245Z,101043.13
2023-02-25T22:11:12.582Z,101043.13
2023-02-25T22:13:40.469Z,101045.84
2023-02-25T22:16:08.570Z,101045.84
2023-02-25T22:18:38.228Z,101043.31
2023-02-25T22:21:10.757Z,101041.25
2023-02-25T22:23:38.760Z,101054.63
2023-02-25T22:26:07.949Z,101056.50
2023-02-25T22:28:36.019Z,101058.34
2023-02-25T22:31:04.149Z,101057.53
2023-02-25T22:33:32.221Z,101062.13
2023-02-25T22:36:01.983Z,101064.00
2023-02-25T22:38:30.331Z,101070.28
2023-02-25T22:40:58.310Z,101069.81
2023-02-25T22:43:26.256Z,101071.09
2023-02-25T22:45:54.170Z,101077.56
2023-02-25T22:48:22.391Z,101083.00
2023-02-25T22:50:50.392Z,101086.75
2023-02-25T22:53:19.800Z,101081.53
2023-02-25T22:55:47.721Z,101078.81
2023-02-25T22:58:15.586Z,101086.97
2023-02-25T23:00:43.785Z,101085.28
2023-02-25T23:03:11.812Z,101086.97
2023-02-25T23:05:39.773Z,101089.66
2023-02-25T23:08:07.728Z,101090.94
2023-02-25T23:10:37.350Z,101087.19
2023-02-25T23:13:08.062Z,101094.69
2023-02-25T23:15:36.642Z,101096.13
2023-02-25T23:18:04.781Z,101099.91
2023-02-25T23:20:33.802Z,101095.53
2023-02-25T23:23:04.671Z,101098.25
2023-02-25T23:25:32.605Z,101094.03
2023-02-25T23:28:02.003Z,101090.28
2023-02-25T23:30:30.065Z,101094.69
2023-02-25T23:32:58.266Z,101097.59
2023-02-25T23:35:26.766Z,101102.84
2023-02-25T23:37:54.651Z,101104.72
2023-02-25T23:40:23.338Z,101100.31
2023-02-25T23:42:51.271Z,101108.47
2023-02-25T23:45:20.569Z,101114.72
2023-02-25T23:47:48.511Z,101102.19
2023-02-25T23:50:16.889Z,101109.31
2023-02-25T23:52:45.099Z,101112.00
2023-02-25T23:55:13.585Z,101112.00
2023-02-25T23:57:41.562Z,101113.88
